logo
Search for airport 
image banner adimage banner adimage banner ad
image banner ad

SWBE - Walfrido Salmito De Almeida

Located in São Benedito, Brazil

ICAO - SWBE, IATA -

Data provided by Airmate  

General information

Coordinates: S4°2'34" W40°53'38"
Elevation is 2900 feet MSL.
Magnetic variation is -21° East
View others Airports in Ceará

Operational data

Special qualification required
Current time UTC:
Current local time:
Weather at : - ( 0 km )
METAR: KVAF 140440Z AUTO 15018KT 9SM BKN027 23/16 A3016 RMK A01
View NOTAMs / SUP AIP / TFR affecting this airport [VIEW]
Communications frequencies: [VIEW]

Runways:

RWY identifierQFULength (ft)Width (ft)SurfaceLDA (ft)
10162080ASPH
28162080ASPH

Airport contact information

Address: São Benedito Brazil

Satellite view of SWBE